sensor_id;sensor_type;location;lat;lon;timestamp;P1;durP1;ratioP1;P2;durP2;ratioP2
20067;SDS011;10194;50.824;7.134;2023-03-01T00:01:11;248.83;;;227.23;;
20067;SDS011;10194;50.824;7.134;2023-03-01T00:03:53;258.87;;;236.57;;
20067;SDS011;10194;50.824;7.134;2023-03-01T00:06:24;255.63;;;233.27;;
20067;SDS011;10194;50.824;7.134;2023-03-01T00:08:51;253.07;;;230.80;;
20067;SDS011;10194;50.824;7.134;2023-03-01T00:11:19;249.63;;;227.50;;
20067;SDS011;10194;50.824;7.134;2023-03-01T00:13:54;252.87;;;230.03;;
20067;SDS011;10194;50.824;7.134;2023-03-01T00:16:24;252.30;;;229.13;;
20067;SDS011;10194;50.824;7.134;2023-03-01T00:18:56;248.37;;;226.23;;
20067;SDS011;10194;50.824;7.134;2023-03-01T00:21:23;252.07;;;229.20;;
20067;SDS011;10194;50.824;7.134;2023-03-01T00:23:50;259.50;;;237.17;;
20067;SDS011;10194;50.824;7.134;2023-03-01T00:26:17;262.23;;;239.27;;
20067;SDS011;10194;50.824;7.134;2023-03-01T00:28:44;257.33;;;234.67;;
20067;SDS011;10194;50.824;7.134;2023-03-01T00:31:17;256.30;;;233.87;;
20067;SDS011;10194;50.824;7.134;2023-03-01T00:33:52;256.37;;;234.20;;
20067;SDS011;10194;50.824;7.134;2023-03-01T00:36:23;261.87;;;239.13;;
20067;SDS011;10194;50.824;7.134;2023-03-01T00:38:55;269.07;;;243.93;;
20067;SDS011;10194;50.824;7.134;2023-03-01T00:41:21;263.10;;;238.57;;
20067;SDS011;10194;50.824;7.134;2023-03-01T00:43:49;259.77;;;237.60;;
20067;SDS011;10194;50.824;7.134;2023-03-01T00:46:16;260.83;;;238.43;;
20067;SDS011;10194;50.824;7.134;2023-03-01T00:48:45;260.27;;;238.40;;
20067;SDS011;10194;50.824;7.134;2023-03-01T00:51:14;258.37;;;236.43;;
20067;SDS011;10194;50.824;7.134;2023-03-01T00:53:45;263.90;;;240.77;;
20067;SDS011;10194;50.824;7.134;2023-03-01T00:56:13;265.70;;;242.90;;
20067;SDS011;10194;50.824;7.134;2023-03-01T00:58:40;261.03;;;238.20;;
20067;SDS011;10194;50.824;7.134;2023-03-01T01:03:42;253.53;;;231.33;;
20067;SDS011;10194;50.824;7.134;2023-03-01T01:06:17;257.60;;;235.23;;
20067;SDS011;10194;50.824;7.134;2023-03-01T01:08:52;258.90;;;236.17;;
20067;SDS011;10194;50.824;7.134;2023-03-01T01:11:20;254.53;;;232.13;;
20067;SDS011;10194;50.824;7.134;2023-03-01T01:13:48;261.37;;;238.70;;
20067;SDS011;10194;50.824;7.134;2023-03-01T01:16:15;262.70;;;240.00;;
20067;SDS011;10194;50.824;7.134;2023-03-01T01:18:43;254.67;;;232.73;;
20067;SDS011;10194;50.824;7.134;2023-03-01T01:21:14;253.90;;;231.43;;
20067;SDS011;10194;50.824;7.134;2023-03-01T01:23:43;252.93;;;230.70;;
20067;SDS011;10194;50.824;7.134;2023-03-01T01:26:10;252.80;;;230.23;;
20067;SDS011;10194;50.824;7.134;2023-03-01T01:28:40;247.07;;;224.50;;
20067;SDS011;10194;50.824;7.134;2023-03-01T01:31:06;248.77;;;226.73;;
20067;SDS011;10194;50.824;7.134;2023-03-01T01:33:31;248.47;;;226.53;;
20067;SDS011;10194;50.824;7.134;2023-03-01T01:35:58;249.20;;;227.30;;
20067;SDS011;10194;50.824;7.134;2023-03-01T01:38:23;250.27;;;228.13;;
20067;SDS011;10194;50.824;7.134;2023-03-01T01:40:50;256.07;;;233.83;;
20067;SDS011;10194;50.824;7.134;2023-03-01T01:43:17;261.83;;;239.23;;
20067;SDS011;10194;50.824;7.134;2023-03-01T01:45:49;262.13;;;240.00;;
20067;SDS011;10194;50.824;7.134;2023-03-01T01:48:20;254.03;;;231.80;;
20067;SDS011;10194;50.824;7.134;2023-03-01T01:50:51;258.17;;;235.80;;
20067;SDS011;10194;50.824;7.134;2023-03-01T01:53:25;253.50;;;232.23;;
20067;SDS011;10194;50.824;7.134;2023-03-01T01:55:55;247.67;;;226.67;;
20067;SDS011;10194;50.824;7.134;2023-03-01T01:58:23;252.17;;;231.13;;
20067;SDS011;10194;50.824;7.134;2023-03-01T02:00:52;252.40;;;230.93;;
20067;SDS011;10194;50.824;7.134;2023-03-01T02:03:20;255.70;;;234.30;;
20067;SDS011;10194;50.824;7.134;2023-03-01T02:05:58;255.87;;;234.20;;
20067;SDS011;10194;50.824;7.134;2023-03-01T02:08:30;245.00;;;224.47;;
20067;SDS011;10194;50.824;7.134;2023-03-01T02:11:02;246.73;;;226.53;;
20067;SDS011;10194;50.824;7.134;2023-03-01T02:13:30;255.33;;;234.97;;
20067;SDS011;10194;50.824;7.134;2023-03-01T02:15:58;251.10;;;230.77;;
20067;SDS011;10194;50.824;7.134;2023-03-01T02:18:25;258.87;;;237.90;;
20067;SDS011;10194;50.824;7.134;2023-03-01T02:23:42;253.97;;;233.97;;
20067;SDS011;10194;50.824;7.134;2023-03-01T02:26:15;254.13;;;233.83;;
20067;SDS011;10194;50.824;7.134;2023-03-01T02:29:03;250.63;;;230.87;;
20067;SDS011;10194;50.824;7.134;2023-03-01T02:31:30;250.40;;;230.33;;
20067;SDS011;10194;50.824;7.134;2023-03-01T02:34:10;252.53;;;232.50;;
20067;SDS011;10194;50.824;7.134;2023-03-01T02:36:52;250.30;;;230.50;;
20067;SDS011;10194;50.824;7.134;2023-03-01T02:39:30;251.37;;;231.50;;
20067;SDS011;10194;50.824;7.134;2023-03-01T02:42:06;243.40;;;224.07;;
20067;SDS011;10194;50.824;7.134;2023-03-01T02:44:36;248.97;;;228.97;;
20067;SDS011;10194;50.824;7.134;2023-03-01T02:47:02;251.40;;;231.50;;
20067;SDS011;10194;50.824;7.134;2023-03-01T02:49:30;245.80;;;226.17;;
20067;SDS011;10194;50.824;7.134;2023-03-01T02:52:17;249.23;;;229.27;;
20067;SDS011;10194;50.824;7.134;2023-03-01T02:55:14;237.97;;;218.60;;
20067;SDS011;10194;50.824;7.134;2023-03-01T02:57:43;245.60;;;225.73;;
20067;SDS011;10194;50.824;7.134;2023-03-01T03:00:12;247.90;;;228.40;;
20067;SDS011;10194;50.824;7.134;2023-03-01T03:03:05;247.17;;;227.30;;
20067;SDS011;10194;50.824;7.134;2023-03-01T03:05:31;245.43;;;226.03;;
20067;SDS011;10194;50.824;7.134;2023-03-01T03:07:58;239.93;;;221.07;;
20067;SDS011;10194;50.824;7.134;2023-03-01T03:10:27;244.57;;;225.23;;
20067;SDS011;10194;50.824;7.134;2023-03-01T03:12:57;247.70;;;228.37;;
20067;SDS011;10194;50.824;7.134;2023-03-01T03:15:29;245.90;;;226.43;;
20067;SDS011;10194;50.824;7.134;2023-03-01T03:17:55;242.37;;;222.63;;
20067;SDS011;10194;50.824;7.134;2023-03-01T03:20:24;246.23;;;226.20;;
20067;SDS011;10194;50.824;7.134;2023-03-01T03:22:53;237.87;;;218.57;;
20067;SDS011;10194;50.824;7.134;2023-03-01T03:25:21;242.00;;;222.53;;
20067;SDS011;10194;50.824;7.134;2023-03-01T03:27:48;241.97;;;222.83;;
20067;SDS011;10194;50.824;7.134;2023-03-01T03:30:21;240.80;;;221.23;;
20067;SDS011;10194;50.824;7.134;2023-03-01T03:32:53;237.93;;;218.90;;
20067;SDS011;10194;50.824;7.134;2023-03-01T03:35:20;241.80;;;222.27;;
20067;SDS011;10194;50.824;7.134;2023-03-01T03:37:50;240.27;;;221.17;;
20067;SDS011;10194;50.824;7.134;2023-03-01T03:40:26;239.10;;;219.77;;
20067;SDS011;10194;50.824;7.134;2023-03-01T03:43:06;241.03;;;221.47;;
20067;SDS011;10194;50.824;7.134;2023-03-01T03:45:34;234.00;;;215.20;;
20067;SDS011;10194;50.824;7.134;2023-03-01T03:48:01;239.47;;;220.40;;
20067;SDS011;10194;50.824;7.134;2023-03-01T03:50:29;235.97;;;216.87;;
20067;SDS011;10194;50.824;7.134;2023-03-01T03:52:56;234.90;;;215.43;;
20067;SDS011;10194;50.824;7.134;2023-03-01T03:55:22;236.83;;;217.83;;
20067;SDS011;10194;50.824;7.134;2023-03-01T03:57:48;234.00;;;214.93;;
20067;SDS011;10194;50.824;7.134;2023-03-01T04:00:17;240.97;;;220.77;;
20067;SDS011;10194;50.824;7.134;2023-03-01T04:02:46;235.77;;;216.43;;
20067;SDS011;10194;50.824;7.134;2023-03-01T04:05:14;233.00;;;213.77;;
20067;SDS011;10194;50.824;7.134;2023-03-01T04:07:42;233.10;;;213.90;;
20067;SDS011;10194;50.824;7.134;2023-03-01T04:10:09;238.27;;;218.67;;
20067;SDS011;10194;50.824;7.134;2023-03-01T04:12:39;236.83;;;216.90;;
20067;SDS011;10194;50.824;7.134;2023-03-01T04:15:05;229.60;;;210.57;;
20067;SDS011;10194;50.824;7.134;2023-03-01T04:17:42;228.37;;;209.10;;
20067;SDS011;10194;50.824;7.134;2023-03-01T04:20:11;230.10;;;210.30;;
20067;SDS011;10194;50.824;7.134;2023-03-01T04:22:42;229.53;;;210.40;;
20067;SDS011;10194;50.824;7.134;2023-03-01T04:25:11;224.50;;;206.23;;
20067;SDS011;10194;50.824;7.134;2023-03-01T04:27:39;226.73;;;207.80;;
20067;SDS011;10194;50.824;7.134;2023-03-01T04:30:06;233.80;;;214.07;;
20067;SDS011;10194;50.824;7.134;2023-03-01T04:32:33;225.70;;;206.87;;
20067;SDS011;10194;50.824;7.134;2023-03-01T04:34:59;226.37;;;207.47;;
20067;SDS011;10194;50.824;7.134;2023-03-01T04:37:25;218.37;;;200.00;;
20067;SDS011;10194;50.824;7.134;2023-03-01T04:39:52;226.47;;;207.70;;
20067;SDS011;10194;50.824;7.134;2023-03-01T04:42:18;220.77;;;202.37;;
20067;SDS011;10194;50.824;7.134;2023-03-01T04:44:44;218.37;;;199.87;;
20067;SDS011;10194;50.824;7.134;2023-03-01T04:47:10;223.73;;;205.30;;
20067;SDS011;10194;50.824;7.134;2023-03-01T04:49:37;219.87;;;201.57;;
20067;SDS011;10194;50.824;7.134;2023-03-01T04:52:03;225.23;;;205.87;;
20067;SDS011;10194;50.824;7.134;2023-03-01T04:54:31;218.07;;;199.63;;
20067;SDS011;10194;50.824;7.134;2023-03-01T04:56:57;222.90;;;204.43;;
20067;SDS011;10194;50.824;7.134;2023-03-01T04:59:23;219.97;;;201.30;;
20067;SDS011;10194;50.824;7.134;2023-03-01T05:01:51;224.13;;;205.60;;
20067;SDS011;10194;50.824;7.134;2023-03-01T05:04:20;220.80;;;202.50;;
20067;SDS011;10194;50.824;7.134;2023-03-01T05:06:47;223.37;;;204.90;;
20067;SDS011;10194;50.824;7.134;2023-03-01T05:09:13;217.60;;;199.53;;
20067;SDS011;10194;50.824;7.134;2023-03-01T05:11:38;221.70;;;203.17;;
20067;SDS011;10194;50.824;7.134;2023-03-01T05:14:05;229.30;;;210.63;;
20067;SDS011;10194;50.824;7.134;2023-03-01T05:16:32;224.97;;;206.37;;
20067;SDS011;10194;50.824;7.134;2023-03-01T05:18:59;221.70;;;203.27;;
20067;SDS011;10194;50.824;7.134;2023-03-01T05:21:25;223.47;;;205.03;;
20067;SDS011;10194;50.824;7.134;2023-03-01T05:23:51;222.53;;;203.70;;
20067;SDS011;10194;50.824;7.134;2023-03-01T05:26:18;225.93;;;206.93;;
20067;SDS011;10194;50.824;7.134;2023-03-01T05:28:46;225.73;;;206.67;;
20067;SDS011;10194;50.824;7.134;2023-03-01T05:31:13;225.20;;;206.73;;
20067;SDS011;10194;50.824;7.134;2023-03-01T05:33:39;221.70;;;203.00;;
20067;SDS011;10194;50.824;7.134;2023-03-01T05:36:09;227.47;;;208.40;;
20067;SDS011;10194;50.824;7.134;2023-03-01T05:38:35;218.37;;;199.70;;
20067;SDS011;10194;50.824;7.134;2023-03-01T05:41:01;221.50;;;202.70;;
20067;SDS011;10194;50.824;7.134;2023-03-01T05:43:29;221.43;;;202.53;;
20067;SDS011;10194;50.824;7.134;2023-03-01T05:45:59;224.90;;;206.37;;
20067;SDS011;10194;50.824;7.134;2023-03-01T05:48:25;225.87;;;206.73;;
20067;SDS011;10194;50.824;7.134;2023-03-01T05:50:51;221.97;;;203.10;;
20067;SDS011;10194;50.824;7.134;2023-03-01T05:53:18;220.10;;;201.10;;
20067;SDS011;10194;50.824;7.134;2023-03-01T05:55:48;217.67;;;198.87;;
20067;SDS011;10194;50.824;7.134;2023-03-01T05:58:15;219.10;;;200.37;;
20067;SDS011;10194;50.824;7.134;2023-03-01T06:00:47;214.40;;;196.00;;
20067;SDS011;10194;50.824;7.134;2023-03-01T06:03:14;218.23;;;199.67;;
20067;SDS011;10194;50.824;7.134;2023-03-01T06:05:42;219.30;;;200.17;;
20067;SDS011;10194;50.824;7.134;2023-03-01T06:08:09;228.13;;;208.73;;
20067;SDS011;10194;50.824;7.134;2023-03-01T06:10:36;220.47;;;201.70;;
20067;SDS011;10194;50.824;7.134;2023-03-01T06:13:02;216.40;;;197.57;;
20067;SDS011;10194;50.824;7.134;2023-03-01T06:15:34;225.10;;;206.07;;
20067;SDS011;10194;50.824;7.134;2023-03-01T06:18:00;220.73;;;201.97;;
20067;SDS011;10194;50.824;7.134;2023-03-01T06:20:27;218.93;;;200.17;;
20067;SDS011;10194;50.824;7.134;2023-03-01T06:22:53;220.47;;;202.30;;
20067;SDS011;10194;50.824;7.134;2023-03-01T06:25:20;222.63;;;203.80;;
20067;SDS011;10194;50.824;7.134;2023-03-01T06:27:48;226.37;;;207.33;;
20067;SDS011;10194;50.824;7.134;2023-03-01T06:30:15;221.67;;;202.60;;
20067;SDS011;10194;50.824;7.134;2023-03-01T06:32:43;220.00;;;200.37;;
20067;SDS011;10194;50.824;7.134;2023-03-01T06:35:09;221.67;;;202.53;;
20067;SDS011;10194;50.824;7.134;2023-03-01T06:37:38;222.63;;;202.93;;
20067;SDS011;10194;50.824;7.134;2023-03-01T06:40:05;227.67;;;207.73;;
20067;SDS011;10194;50.824;7.134;2023-03-01T06:42:33;221.33;;;202.00;;
20067;SDS011;10194;50.824;7.134;2023-03-01T06:45:04;221.50;;;202.00;;
20067;SDS011;10194;50.824;7.134;2023-03-01T06:47:32;225.50;;;205.53;;
20067;SDS011;10194;50.824;7.134;2023-03-01T06:50:02;220.60;;;201.43;;
20067;SDS011;10194;50.824;7.134;2023-03-01T06:52:28;224.03;;;204.67;;
20067;SDS011;10194;50.824;7.134;2023-03-01T06:54:54;225.20;;;205.53;;
20067;SDS011;10194;50.824;7.134;2023-03-01T06:57:20;224.77;;;205.23;;
20067;SDS011;10194;50.824;7.134;2023-03-01T06:59:46;223.40;;;204.03;;
20067;SDS011;10194;50.824;7.134;2023-03-01T07:02:13;227.07;;;207.40;;
20067;SDS011;10194;50.824;7.134;2023-03-01T07:04:40;227.40;;;208.03;;
20067;SDS011;10194;50.824;7.134;2023-03-01T07:07:07;227.50;;;208.50;;
20067;SDS011;10194;50.824;7.134;2023-03-01T07:09:32;228.97;;;209.47;;
20067;SDS011;10194;50.824;7.134;2023-03-01T07:11:58;231.63;;;212.23;;
20067;SDS011;10194;50.824;7.134;2023-03-01T07:14:24;230.10;;;210.77;;
20067;SDS011;10194;50.824;7.134;2023-03-01T07:16:51;227.60;;;208.07;;
20067;SDS011;10194;50.824;7.134;2023-03-01T07:19:17;244.80;;;224.27;;
20067;SDS011;10194;50.824;7.134;2023-03-01T07:21:43;247.50;;;227.30;;
20067;SDS011;10194;50.824;7.134;2023-03-01T07:24:10;245.17;;;225.27;;
20067;SDS011;10194;50.824;7.134;2023-03-01T07:26:36;245.33;;;224.93;;
20067;SDS011;10194;50.824;7.134;2023-03-01T07:29:03;253.90;;;231.97;;
20067;SDS011;10194;50.824;7.134;2023-03-01T07:31:30;254.47;;;230.87;;
20067;SDS011;10194;50.824;7.134;2023-03-01T07:33:56;263.77;;;240.30;;
20067;SDS011;10194;50.824;7.134;2023-03-01T07:36:22;266.07;;;242.50;;
20067;SDS011;10194;50.824;7.134;2023-03-01T07:38:48;284.00;;;259.77;;
20067;SDS011;10194;50.824;7.134;2023-03-01T07:41:14;282.90;;;259.33;;
20067;SDS011;10194;50.824;7.134;2023-03-01T07:43:40;285.33;;;261.53;;
20067;SDS011;10194;50.824;7.134;2023-03-01T07:46:06;293.47;;;269.43;;
20067;SDS011;10194;50.824;7.134;2023-03-01T07:48:32;296.60;;;272.27;;
20067;SDS011;10194;50.824;7.134;2023-03-01T07:50:59;300.70;;;276.27;;
20067;SDS011;10194;50.824;7.134;2023-03-01T07:53:25;295.57;;;271.10;;
20067;SDS011;10194;50.824;7.134;2023-03-01T07:56:05;287.43;;;263.57;;
20067;SDS011;10194;50.824;7.134;2023-03-01T07:58:34;291.37;;;266.77;;
20067;SDS011;10194;50.824;7.134;2023-03-01T08:01:01;290.03;;;265.53;;
20067;SDS011;10194;50.824;7.134;2023-03-01T08:03:28;283.53;;;259.60;;
20067;SDS011;10194;50.824;7.134;2023-03-01T08:05:54;282.97;;;258.97;;
20067;SDS011;10194;50.824;7.134;2023-03-01T08:08:20;273.33;;;250.23;;
20067;SDS011;10194;50.824;7.134;2023-03-01T08:10:46;270.03;;;246.53;;
20067;SDS011;10194;50.824;7.134;2023-03-01T08:13:12;275.23;;;251.67;;
20067;SDS011;10194;50.824;7.134;2023-03-01T08:15:38;273.80;;;250.13;;
20067;SDS011;10194;50.824;7.134;2023-03-01T08:18:03;277.87;;;254.37;;
20067;SDS011;10194;50.824;7.134;2023-03-01T08:20:29;257.77;;;235.57;;
20067;SDS011;10194;50.824;7.134;2023-03-01T08:22:55;224.27;;;202.33;;
20067;SDS011;10194;50.824;7.134;2023-03-01T08:25:23;220.73;;;198.97;;
20067;SDS011;10194;50.824;7.134;2023-03-01T08:27:48;205.07;;;183.63;;
20067;SDS011;10194;50.824;7.134;2023-03-01T08:30:14;208.03;;;186.37;;
20067;SDS011;10194;50.824;7.134;2023-03-01T08:32:40;241.90;;;219.37;;
20067;SDS011;10194;50.824;7.134;2023-03-01T08:35:06;263.67;;;240.97;;
20067;SDS011;10194;50.824;7.134;2023-03-01T08:37:32;264.33;;;241.20;;
20067;SDS011;10194;50.824;7.134;2023-03-01T08:40:01;272.13;;;248.90;;
20067;SDS011;10194;50.824;7.134;2023-03-01T08:42:32;278.50;;;254.57;;
20067;SDS011;10194;50.824;7.134;2023-03-01T08:44:58;279.10;;;255.47;;
20067;SDS011;10194;50.824;7.134;2023-03-01T08:47:23;287.13;;;262.93;;
20067;SDS011;10194;50.824;7.134;2023-03-01T08:49:51;293.83;;;269.00;;
20067;SDS011;10194;50.824;7.134;2023-03-01T08:52:18;296.10;;;270.83;;
20067;SDS011;10194;50.824;7.134;2023-03-01T08:54:46;293.63;;;269.53;;
20067;SDS011;10194;50.824;7.134;2023-03-01T08:57:13;287.40;;;263.20;;
20067;SDS011;10194;50.824;7.134;2023-03-01T08:59:39;291.20;;;266.33;;
20067;SDS011;10194;50.824;7.134;2023-03-01T09:02:08;287.60;;;263.03;;
20067;SDS011;10194;50.824;7.134;2023-03-01T09:04:40;287.23;;;262.47;;
20067;SDS011;10194;50.824;7.134;2023-03-01T09:07:06;289.90;;;265.77;;
20067;SDS011;10194;50.824;7.134;2023-03-01T09:09:33;287.13;;;263.03;;
20067;SDS011;10194;50.824;7.134;2023-03-01T09:11:59;292.73;;;267.90;;
20067;SDS011;10194;50.824;7.134;2023-03-01T09:14:25;284.87;;;261.13;;
20067;SDS011;10194;50.824;7.134;2023-03-01T09:16:51;289.33;;;264.83;;
20067;SDS011;10194;50.824;7.134;2023-03-01T09:19:17;291.40;;;267.27;;
20067;SDS011;10194;50.824;7.134;2023-03-01T09:21:43;293.40;;;269.43;;
20067;SDS011;10194;50.824;7.134;2023-03-01T09:24:17;290.23;;;266.07;;
20067;SDS011;10194;50.824;7.134;2023-03-01T09:26:47;292.03;;;267.67;;
20067;SDS011;10194;50.824;7.134;2023-03-01T09:29:14;287.47;;;263.80;;
20067;SDS011;10194;50.824;7.134;2023-03-01T09:31:40;289.30;;;265.43;;
20067;SDS011;10194;50.824;7.134;2023-03-01T09:34:07;292.80;;;268.47;;
20067;SDS011;10194;50.824;7.134;2023-03-01T09:36:34;293.37;;;268.73;;
20067;SDS011;10194;50.824;7.134;2023-03-01T09:39:00;294.50;;;269.87;;
20067;SDS011;10194;50.824;7.134;2023-03-01T09:44:18;295.73;;;271.03;;
20067;SDS011;10194;50.824;7.134;2023-03-01T09:46:55;293.87;;;269.83;;
20067;SDS011;10194;50.824;7.134;2023-03-01T09:49:23;299.67;;;275.30;;
20067;SDS011;10194;50.824;7.134;2023-03-01T09:55:10;292.03;;;267.90;;
20067;SDS011;10194;50.824;7.134;2023-03-01T10:00:42;292.47;;;269.07;;
20067;SDS011;10194;50.824;7.134;2023-03-01T10:03:26;294.93;;;271.00;;
20067;SDS011;10194;50.824;7.134;2023-03-01T10:06:05;288.97;;;265.70;;
20067;SDS011;10194;50.824;7.134;2023-03-01T10:08:53;291.73;;;267.83;;
20067;SDS011;10194;50.824;7.134;2023-03-01T10:11:27;293.63;;;270.00;;
20067;SDS011;10194;50.824;7.134;2023-03-01T10:14:02;297.33;;;274.33;;
20067;SDS011;10194;50.824;7.134;2023-03-01T10:17:36;300.63;;;276.20;;
20067;SDS011;10194;50.824;7.134;2023-03-01T10:20:24;296.27;;;272.53;;
20067;SDS011;10194;50.824;7.134;2023-03-01T10:22:56;303.07;;;279.10;;
20067;SDS011;10194;50.824;7.134;2023-03-01T10:28:50;304.03;;;280.13;;
20067;SDS011;10194;50.824;7.134;2023-03-01T10:31:25;305.73;;;282.00;;
20067;SDS011;10194;50.824;7.134;2023-03-01T10:34:09;313.47;;;289.17;;
20067;SDS011;10194;50.824;7.134;2023-03-01T10:36:42;311.50;;;287.63;;
20067;SDS011;10194;50.824;7.134;2023-03-01T10:39:14;306.70;;;282.40;;
20067;SDS011;10194;50.824;7.134;2023-03-01T10:42:07;308.77;;;284.30;;
20067;SDS011;10194;50.824;7.134;2023-03-01T10:44:50;315.60;;;290.73;;
20067;SDS011;10194;50.824;7.134;2023-03-01T10:47:18;305.53;;;281.30;;
20067;SDS011;10194;50.824;7.134;2023-03-01T10:49:53;308.17;;;283.53;;
20067;SDS011;10194;50.824;7.134;2023-03-01T10:52:31;307.63;;;283.03;;
20067;SDS011;10194;50.824;7.134;2023-03-01T10:55:04;310.30;;;285.27;;
20067;SDS011;10194;50.824;7.134;2023-03-01T10:57:41;303.53;;;278.30;;
20067;SDS011;10194;50.824;7.134;2023-03-01T11:00:18;302.60;;;276.40;;
20067;SDS011;10194;50.824;7.134;2023-03-01T11:02:49;303.57;;;278.37;;
20067;SDS011;10194;50.824;7.134;2023-03-01T11:05:28;303.87;;;278.40;;
20067;SDS011;10194;50.824;7.134;2023-03-01T11:07:59;309.13;;;280.63;;
20067;SDS011;10194;50.824;7.134;2023-03-01T11:10:37;294.03;;;268.53;;
20067;SDS011;10194;50.824;7.134;2023-03-01T11:13:14;297.87;;;271.37;;
20067;SDS011;10194;50.824;7.134;2023-03-01T11:15:58;284.00;;;258.17;;
20067;SDS011;10194;50.824;7.134;2023-03-01T11:18:26;283.37;;;257.57;;
20067;SDS011;10194;50.824;7.134;2023-03-01T11:20:54;289.43;;;262.67;;
20067;SDS011;10194;50.824;7.134;2023-03-01T11:23:21;286.07;;;259.73;;
20067;SDS011;10194;50.824;7.134;2023-03-01T11:25:51;285.83;;;259.73;;
20067;SDS011;10194;50.824;7.134;2023-03-01T11:28:24;284.03;;;258.10;;
20067;SDS011;10194;50.824;7.134;2023-03-01T11:30:59;283.33;;;256.90;;
20067;SDS011;10194;50.824;7.134;2023-03-01T11:33:41;293.30;;;267.53;;
20067;SDS011;10194;50.824;7.134;2023-03-01T11:39:14;281.23;;;255.27;;
20067;SDS011;10194;50.824;7.134;2023-03-01T11:41:51;285.40;;;259.20;;
20067;SDS011;10194;50.824;7.134;2023-03-01T11:44:28;285.37;;;258.83;;
20067;SDS011;10194;50.824;7.134;2023-03-01T11:50:07;298.53;;;272.83;;
20067;SDS011;10194;50.824;7.134;2023-03-01T12:07:31;297.37;;;270.17;;
20067;SDS011;10194;50.824;7.134;2023-03-01T12:10:27;285.60;;;259.67;;
20067;SDS011;10194;50.824;7.134;2023-03-01T12:22:15;282.00;;;256.23;;
20067;SDS011;10194;50.824;7.134;2023-03-01T12:27:50;276.33;;;251.60;;
20067;SDS011;10194;50.824;7.134;2023-03-01T12:38:49;278.80;;;253.97;;
20067;SDS011;10194;50.824;7.134;2023-03-01T12:47:42;277.90;;;252.93;;
20067;SDS011;10194;50.824;7.134;2023-03-01T12:49:57;282.13;;;257.23;;
20067;SDS011;10194;50.824;7.134;2023-03-01T12:52:38;282.80;;;257.60;;
20067;SDS011;10194;50.824;7.134;2023-03-01T13:11:58;280.07;;;255.20;;
20067;SDS011;10194;50.824;7.134;2023-03-01T13:16:51;282.50;;;257.50;;
20067;SDS011;10194;50.824;7.134;2023-03-01T13:19:21;277.17;;;253.13;;
20067;SDS011;10194;50.824;7.134;2023-03-01T13:21:50;282.23;;;257.30;;
20067;SDS011;10194;50.824;7.134;2023-03-01T13:24:27;282.63;;;258.00;;
20067;SDS011;10194;50.824;7.134;2023-03-01T13:29:54;282.00;;;257.53;;
20067;SDS011;10194;50.824;7.134;2023-03-01T13:32:31;275.47;;;251.23;;
20067;SDS011;10194;50.824;7.134;2023-03-01T13:35:00;273.67;;;249.57;;
20067;SDS011;10194;50.824;7.134;2023-03-01T13:37:43;278.53;;;254.37;;
20067;SDS011;10194;50.824;7.134;2023-03-01T13:43:22;278.40;;;253.63;;
20067;SDS011;10194;50.824;7.134;2023-03-01T13:45:52;278.33;;;253.73;;
20067;SDS011;10194;50.824;7.134;2023-03-01T13:48:24;274.77;;;250.73;;
20067;SDS011;10194;50.824;7.134;2023-03-01T13:51:03;277.40;;;253.20;;
20067;SDS011;10194;50.824;7.134;2023-03-01T13:53:33;281.60;;;256.97;;
20067;SDS011;10194;50.824;7.134;2023-03-01T13:56:09;281.57;;;257.07;;
20067;SDS011;10194;50.824;7.134;2023-03-01T13:58:54;283.17;;;257.27;;
20067;SDS011;10194;50.824;7.134;2023-03-01T14:01:31;287.77;;;262.30;;
20067;SDS011;10194;50.824;7.134;2023-03-01T14:04:01;283.20;;;257.90;;
20067;SDS011;10194;50.824;7.134;2023-03-01T14:06:29;278.10;;;253.60;;
20067;SDS011;10194;50.824;7.134;2023-03-01T14:14:40;273.67;;;249.20;;
20067;SDS011;10194;50.824;7.134;2023-03-01T14:20:17;279.43;;;254.03;;
20067;SDS011;10194;50.824;7.134;2023-03-01T14:22:55;267.20;;;242.90;;
20067;SDS011;10194;50.824;7.134;2023-03-01T14:25:28;265.70;;;241.33;;
20067;SDS011;10194;50.824;7.134;2023-03-01T14:27:57;268.17;;;243.97;;
20067;SDS011;10194;50.824;7.134;2023-03-01T14:30:33;269.57;;;244.90;;
20067;SDS011;10194;50.824;7.134;2023-03-01T14:33:03;269.67;;;244.90;;
20067;SDS011;10194;50.824;7.134;2023-03-01T14:35:42;266.77;;;242.07;;
20067;SDS011;10194;50.824;7.134;2023-03-01T14:38:19;265.27;;;240.57;;
20067;SDS011;10194;50.824;7.134;2023-03-01T14:40:47;273.03;;;247.70;;
20067;SDS011;10194;50.824;7.134;2023-03-01T14:43:18;262.47;;;237.93;;
20067;SDS011;10194;50.824;7.134;2023-03-01T14:45:48;267.13;;;242.23;;
20067;SDS011;10194;50.824;7.134;2023-03-01T14:48:15;266.63;;;241.73;;
20067;SDS011;10194;50.824;7.134;2023-03-01T14:50:42;260.87;;;236.27;;
20067;SDS011;10194;50.824;7.134;2023-03-01T14:53:16;253.43;;;229.20;;
20067;SDS011;10194;50.824;7.134;2023-03-01T14:55:46;267.07;;;241.97;;
20067;SDS011;10194;50.824;7.134;2023-03-01T14:58:19;263.90;;;239.10;;
20067;SDS011;10194;50.824;7.134;2023-03-01T15:00:49;264.83;;;239.87;;
20067;SDS011;10194;50.824;7.134;2023-03-01T15:03:34;257.73;;;233.40;;
20067;SDS011;10194;50.824;7.134;2023-03-01T15:06:12;261.47;;;237.03;;
20067;SDS011;10194;50.824;7.134;2023-03-01T15:08:47;257.13;;;232.33;;
20067;SDS011;10194;50.824;7.134;2023-03-01T15:11:19;259.50;;;235.20;;
20067;SDS011;10194;50.824;7.134;2023-03-01T15:13:50;260.93;;;236.47;;
20067;SDS011;10194;50.824;7.134;2023-03-01T15:16:17;257.27;;;232.60;;
20067;SDS011;10194;50.824;7.134;2023-03-01T15:18:51;253.47;;;229.13;;
20067;SDS011;10194;50.824;7.134;2023-03-01T15:21:35;255.47;;;230.83;;
20067;SDS011;10194;50.824;7.134;2023-03-01T15:26:51;251.20;;;227.10;;
20067;SDS011;10194;50.824;7.134;2023-03-01T15:29:27;259.47;;;234.97;;
20067;SDS011;10194;50.824;7.134;2023-03-01T15:31:59;257.87;;;233.27;;
20067;SDS011;10194;50.824;7.134;2023-03-01T15:34:33;258.07;;;233.40;;
20067;SDS011;10194;50.824;7.134;2023-03-01T15:37:02;258.73;;;234.23;;
20067;SDS011;10194;50.824;7.134;2023-03-01T15:40:17;262.20;;;237.07;;
20067;SDS011;10194;50.824;7.134;2023-03-01T15:42:44;261.00;;;236.13;;
20067;SDS011;10194;50.824;7.134;2023-03-01T15:47:55;260.70;;;236.07;;
20067;SDS011;10194;50.824;7.134;2023-03-01T15:52:54;264.53;;;239.93;;
20067;SDS011;10194;50.824;7.134;2023-03-01T15:57:50;248.07;;;223.83;;
20067;SDS011;10194;50.824;7.134;2023-03-01T16:00:29;252.67;;;228.17;;
20067;SDS011;10194;50.824;7.134;2023-03-01T16:02:55;249.03;;;224.37;;
20067;SDS011;10194;50.824;7.134;2023-03-01T16:05:22;254.60;;;229.87;;